createdAt,value
2023-03-19T00:00:31.935Z,64.47
2023-03-19T00:01:18.837Z,65.02
2023-03-19T00:02:17.008Z,65.16
2023-03-19T00:03:05.198Z,65.06
2023-03-19T00:03:52.231Z,65.22
2023-03-19T00:04:39.287Z,65.29
2023-03-19T00:05:26.262Z,65.11
2023-03-19T00:06:13.327Z,65.48
2023-03-19T00:07:00.497Z,65.33
2023-03-19T00:07:47.536Z,65.72
2023-03-19T00:08:34.409Z,65.67
2023-03-19T00:09:22.221Z,65.72
2023-03-19T00:10:09.552Z,65.58
2023-03-19T00:10:56.589Z,65.84
2023-03-19T00:11:43.523Z,66.59
2023-03-19T00:12:30.539Z,66.46
2023-03-19T00:13:17.856Z,67.08
2023-03-19T00:14:06.940Z,67.53
2023-03-19T00:14:53.819Z,67.76
2023-03-19T00:15:41.018Z,68.35
2023-03-19T00:16:27.998Z,68.62
2023-03-19T00:17:14.894Z,68.62
2023-03-19T00:18:01.810Z,69.03
2023-03-19T00:18:49.568Z,69.37
2023-03-19T00:19:36.499Z,70.66
2023-03-19T00:20:23.414Z,70.71
2023-03-19T00:21:10.279Z,71.28
2023-03-19T00:21:57.310Z,70.79
2023-03-19T00:22:44.165Z,70.65
2023-03-19T00:23:31.604Z,70.96
2023-03-19T00:24:18.623Z,71.23
2023-03-19T00:25:06.091Z,70.93
2023-03-19T00:25:54.801Z,70.90
2023-03-19T00:26:41.709Z,71.96
2023-03-19T00:27:28.558Z,73.62
2023-03-19T00:28:15.454Z,73.28
2023-03-19T00:29:03.638Z,73.01
2023-03-19T00:29:50.820Z,73.41
2023-03-19T00:30:37.788Z,74.20
2023-03-19T00:31:25.299Z,75.34
2023-03-19T00:32:12.291Z,76.57
2023-03-19T00:32:59.225Z,76.26
2023-03-19T00:33:46.638Z,77.70
2023-03-19T00:34:33.518Z,78.67
2023-03-19T00:35:20.940Z,79.30
2023-03-19T00:36:08.172Z,78.89
2023-03-19T00:36:56.520Z,79.50
2023-03-19T00:37:43.481Z,79.95
2023-03-19T00:38:30.348Z,79.95
2023-03-19T00:39:17.686Z,80.89
2023-03-19T00:40:05.432Z,81.69
2023-03-19T00:40:52.410Z,81.30
2023-03-19T00:41:39.272Z,82.03
2023-03-19T00:42:26.314Z,83.39
2023-03-19T00:43:13.112Z,83.86
2023-03-19T00:43:59.987Z,83.94
2023-03-19T00:44:46.798Z,84.04
2023-03-19T00:45:34.071Z,84.25
2023-03-19T00:46:21.291Z,83.36
2023-03-19T00:47:08.319Z,83.42
2023-03-19T00:47:55.178Z,82.74
2023-03-19T00:48:42.120Z,83.51
2023-03-19T00:49:28.959Z,84.27
2023-03-19T00:50:15.970Z,85.12
2023-03-19T00:51:05.095Z,85.27
2023-03-19T00:51:51.960Z,84.48
2023-03-19T00:52:38.871Z,84.41
2023-03-19T00:53:26.417Z,84.43
2023-03-19T00:54:13.509Z,84.11
2023-03-19T00:55:00.419Z,85.50
2023-03-19T00:55:47.530Z,86.73
2023-03-19T00:56:34.469Z,87.12
2023-03-19T00:57:21.659Z,88.59
2023-03-19T00:58:10.443Z,88.94
2023-03-19T00:58:57.650Z,89.03
2023-03-19T00:59:44.532Z,89.19
2023-03-19T01:00:31.455Z,89.07
2023-03-19T01:01:18.911Z,89.02
2023-03-19T01:02:06.212Z,88.19
2023-03-19T01:02:53.280Z,88.50
2023-03-19T01:03:40.576Z,88.42
2023-03-19T01:04:27.502Z,88.17
2023-03-19T01:05:14.375Z,88.16
2023-03-19T01:06:01.271Z,87.97
2023-03-19T01:06:48.230Z,88.10
2023-03-19T01:07:35.385Z,87.28
2023-03-19T01:08:22.271Z,87.06
2023-03-19T01:09:09.462Z,86.79
2023-03-19T01:09:56.594Z,86.97
2023-03-19T01:10:44.073Z,86.88
2023-03-19T01:11:31.159Z,87.53
2023-03-19T01:12:19.698Z,87.84
2023-03-19T01:13:07.134Z,87.96
2023-03-19T01:13:53.984Z,87.86
2023-03-19T01:14:40.864Z,87.89
2023-03-19T01:15:27.953Z,87.42
2023-03-19T01:16:14.821Z,87.84
2023-03-19T01:17:01.799Z,88.93
2023-03-19T01:17:49.386Z,88.79
2023-03-19T01:18:36.934Z,89.41
2023-03-19T01:19:23.812Z,90.91
2023-03-19T01:20:14.187Z,92.25
2023-03-19T01:21:01.497Z,92.49
2023-03-19T01:21:49.810Z,92.83
2023-03-19T01:22:37.982Z,93.12
2023-03-19T01:23:24.953Z,92.75
2023-03-19T01:24:14.294Z,92.79
2023-03-19T01:25:02.495Z,92.54
2023-03-19T01:25:49.393Z,93.17
2023-03-19T01:26:36.428Z,93.07
2023-03-19T01:27:23.352Z,93.36
2023-03-19T01:28:10.298Z,93.48
2023-03-19T01:28:58.487Z,93.72
2023-03-19T01:29:45.354Z,94.95
2023-03-19T01:30:32.460Z,95.23
2023-03-19T01:31:19.790Z,96.08
2023-03-19T01:32:07.700Z,97.32
2023-03-19T01:32:54.844Z,97.72
2023-03-19T01:33:42.919Z,97.01
2023-03-19T01:34:29.793Z,96.90
2023-03-19T01:35:16.974Z,96.82
2023-03-19T01:36:05.734Z,97.41
2023-03-19T01:36:52.834Z,97.26
2023-03-19T01:37:39.715Z,97.09
2023-03-19T01:38:26.576Z,97.20
2023-03-19T01:39:13.460Z,97.17
2023-03-19T01:40:00.614Z,96.69
2023-03-19T01:40:48.292Z,96.17
2023-03-19T01:41:35.172Z,95.83
2023-03-19T01:42:22.096Z,95.15
2023-03-19T01:43:23.802Z,94.29
2023-03-19T01:44:30.783Z,94.55
2023-03-19T01:45:39.478Z,93.97
2023-03-19T01:46:32.328Z,93.99
2023-03-19T01:47:24.789Z,93.24
2023-03-19T01:48:20.723Z,93.09
2023-03-19T01:49:09.340Z,92.89
2023-03-19T01:49:57.121Z,92.97
2023-03-19T01:50:45.744Z,93.03
2023-03-19T01:51:35.953Z,93.66
2023-03-19T01:52:24.493Z,94.85
2023-03-19T01:53:13.188Z,94.53
2023-03-19T01:54:03.072Z,94.74
2023-03-19T01:54:52.056Z,95.13
2023-03-19T01:55:40.384Z,95.59
2023-03-19T01:56:33.418Z,96.35
2023-03-19T01:57:20.914Z,96.08
2023-03-19T01:58:08.374Z,96.86
2023-03-19T01:58:58.532Z,97.11
2023-03-19T01:59:52.444Z,96.97
2023-03-19T02:00:39.548Z,97.37
2023-03-19T02:01:28.777Z,97.98
2023-03-19T02:02:29.555Z,97.67
2023-03-19T02:03:16.791Z,96.62
2023-03-19T02:04:04.086Z,96.78
2023-03-19T02:04:54.470Z,97.00
2023-03-19T02:05:42.046Z,96.66
2023-03-19T02:06:30.491Z,96.12
2023-03-19T02:07:17.840Z,96.22
2023-03-19T02:08:06.844Z,95.96
2023-03-19T02:08:54.242Z,95.34
2023-03-19T02:09:41.541Z,94.63
2023-03-19T02:10:29.664Z,94.61
2023-03-19T02:11:16.926Z,94.39
2023-03-19T02:12:05.048Z,95.14
2023-03-19T02:12:52.086Z,95.56
2023-03-19T02:13:39.300Z,96.19
2023-03-19T02:14:26.422Z,96.14
2023-03-19T02:15:13.322Z,96.03
2023-03-19T02:16:00.330Z,96.35
2023-03-19T02:16:47.450Z,96.96
2023-03-19T02:17:34.506Z,96.88
2023-03-19T02:18:22.124Z,96.26
2023-03-19T02:19:11.718Z,95.94
2023-03-19T02:20:18.366Z,95.81
2023-03-19T02:21:11.228Z,95.79
2023-03-19T02:21:59.687Z,96.69
2023-03-19T02:22:55.539Z,97.01
2023-03-19T02:24:00.991Z,96.90
2023-03-19T02:25:16.659Z,97.13
2023-03-19T02:26:07.548Z,96.70
2023-03-19T02:26:54.999Z,97.73
2023-03-19T02:27:42.577Z,97.41
2023-03-19T02:28:30.699Z,96.83
2023-03-19T02:29:17.730Z,95.82
2023-03-19T02:30:26.950Z,95.48
2023-03-19T02:31:14.855Z,95.64
2023-03-19T02:32:03.830Z,94.63
2023-03-19T02:32:50.808Z,93.77
2023-03-19T02:33:37.828Z,94.44
2023-03-19T02:34:24.650Z,94.43
2023-03-19T02:35:11.518Z,95.97
2023-03-19T02:35:59.325Z,95.96
2023-03-19T02:36:51.881Z,95.30
2023-03-19T02:37:38.677Z,95.17
2023-03-19T02:38:26.312Z,94.66
2023-03-19T02:39:41.849Z,94.28
2023-03-19T02:40:45.947Z,95.35
2023-03-19T02:41:33.788Z,96.13
2023-03-19T02:42:22.105Z,96.25
2023-03-19T02:43:08.922Z,96.17
2023-03-19T02:43:56.280Z,97.08
2023-03-19T02:44:43.563Z,97.43
2023-03-19T02:45:31.858Z,97.40
2023-03-19T02:46:18.832Z,97.53
2023-03-19T02:47:06.060Z,97.76
2023-03-19T02:47:52.895Z,98.24
2023-03-19T02:48:39.798Z,98.96
2023-03-19T02:49:26.844Z,99.50
2023-03-19T02:50:13.861Z,99.69
2023-03-19T02:51:00.807Z,100.00
2023-03-19T02:51:47.666Z,100.00
2023-03-19T02:52:34.856Z,100.00
2023-03-19T02:53:21.829Z,100.00
2023-03-19T02:54:09.108Z,100.00
2023-03-19T02:54:56.386Z,100.00
2023-03-19T02:55:43.891Z,100.00
2023-03-19T02:56:31.558Z,100.00
2023-03-19T02:57:18.465Z,100.00
2023-03-19T02:58:05.408Z,100.00
2023-03-19T02:58:52.305Z,100.00
2023-03-19T02:59:39.572Z,100.00
2023-03-19T03:00:26.632Z,100.00
2023-03-19T03:01:13.702Z,100.00
2023-03-19T03:02:00.870Z,100.00
2023-03-19T03:02:47.806Z,100.00
2023-03-19T03:03:34.669Z,100.00
2023-03-19T03:04:21.965Z,100.00
2023-03-19T03:05:10.237Z,100.00
2023-03-19T03:05:57.182Z,100.00
2023-03-19T03:06:44.845Z,100.00
2023-03-19T03:07:31.903Z,100.00
2023-03-19T03:08:18.832Z,100.00
2023-03-19T03:09:05.761Z,100.00
2023-03-19T03:09:52.956Z,100.00
2023-03-19T03:10:39.916Z,100.00
2023-03-19T03:11:27.344Z,100.00
2023-03-19T03:12:14.554Z,100.00
2023-03-19T03:13:01.900Z,100.00
2023-03-19T03:13:48.857Z,100.00
2023-03-19T03:14:36.193Z,100.00
2023-03-19T03:15:23.082Z,100.00
2023-03-19T03:16:10.073Z,100.00
2023-03-19T03:16:57.593Z,100.00
2023-03-19T03:17:46.003Z,100.00
2023-03-19T03:18:33.055Z,100.00
2023-03-19T03:19:20.389Z,100.00
2023-03-19T03:20:08.719Z,100.00
2023-03-19T03:20:55.595Z,100.00
2023-03-19T03:21:42.824Z,100.00
2023-03-19T03:22:29.673Z,100.00
2023-03-19T03:23:17.306Z,100.00
2023-03-19T03:24:04.665Z,100.00
2023-03-19T03:24:51.515Z,100.00
2023-03-19T03:25:38.403Z,100.00
2023-03-19T03:26:25.876Z,100.00
2023-03-19T03:27:12.756Z,100.00
2023-03-19T03:28:00.156Z,100.00
2023-03-19T03:28:47.766Z,100.00
2023-03-19T03:29:34.638Z,100.00
2023-03-19T03:30:21.495Z,100.00
2023-03-19T03:31:09.169Z,100.00
2023-03-19T03:31:56.231Z,100.00
2023-03-19T03:32:43.833Z,100.00
2023-03-19T03:33:30.967Z,100.00
2023-03-19T03:34:18.099Z,100.00
2023-03-19T03:35:06.669Z,100.00
2023-03-19T03:35:53.601Z,100.00
2023-03-19T03:36:40.556Z,100.00
2023-03-19T03:37:27.952Z,100.00
2023-03-19T03:38:14.852Z,100.00
2023-03-19T03:39:01.939Z,100.00
2023-03-19T03:39:48.897Z,100.00
2023-03-19T03:40:36.816Z,100.00
2023-03-19T03:41:23.783Z,100.00
2023-03-19T03:42:10.798Z,100.00
2023-03-19T03:42:58.128Z,100.00
2023-03-19T03:43:45.380Z,100.00
2023-03-19T03:44:32.329Z,100.00
2023-03-19T03:45:19.362Z,100.00
2023-03-19T03:46:06.358Z,100.00
2023-03-19T03:46:53.486Z,100.00
2023-03-19T03:47:40.341Z,100.00
2023-03-19T03:48:27.279Z,100.00
2023-03-19T03:49:14.117Z,100.00
2023-03-19T03:50:00.964Z,100.00
2023-03-19T03:50:48.048Z,100.00
2023-03-19T03:51:34.956Z,100.00
2023-03-19T03:52:22.697Z,100.00
2023-03-19T03:53:10.286Z,100.00
2023-03-19T03:53:57.168Z,100.00
2023-03-19T03:54:44.028Z,100.00
2023-03-19T03:55:31.061Z,100.00
2023-03-19T03:56:18.047Z,100.00
2023-03-19T03:57:05.273Z,100.00
2023-03-19T03:57:52.252Z,100.00
2023-03-19T03:58:39.533Z,100.00
2023-03-19T03:59:26.445Z,100.00
2023-03-19T04:00:14.485Z,100.00
2023-03-19T04:01:01.579Z,100.00
2023-03-19T04:01:48.680Z,100.00
2023-03-19T04:02:35.684Z,100.00
2023-03-19T04:03:24.489Z,100.00
2023-03-19T04:04:11.446Z,100.00
2023-03-19T04:04:58.400Z,100.00
2023-03-19T04:05:45.670Z,100.00
2023-03-19T04:06:32.520Z,100.00
2023-03-19T04:07:19.559Z,100.00
2023-03-19T04:08:07.998Z,100.00
2023-03-19T04:08:55.135Z,100.00
2023-03-19T04:09:42.482Z,100.00
2023-03-19T04:10:29.893Z,100.00
2023-03-19T04:11:16.808Z,100.00
2023-03-19T04:12:04.216Z,100.00
2023-03-19T04:12:51.256Z,100.00
2023-03-19T04:13:38.409Z,100.00
2023-03-19T04:14:25.386Z,100.00
2023-03-19T04:15:12.935Z,100.00
2023-03-19T04:15:59.818Z,100.00
2023-03-19T04:16:46.903Z,100.00
2023-03-19T04:17:34.096Z,100.00
2023-03-19T04:18:21.010Z,100.00
2023-03-19T04:19:07.946Z,100.00
2023-03-19T04:19:54.840Z,100.00
2023-03-19T04:20:42.259Z,100.00
2023-03-19T04:21:29.970Z,100.00
2023-03-19T04:22:16.822Z,100.00
2023-03-19T04:23:03.752Z,100.00
2023-03-19T04:23:50.606Z,100.00
2023-03-19T04:24:37.472Z,100.00
2023-03-19T04:25:24.444Z,100.00
2023-03-19T04:26:12.399Z,100.00
2023-03-19T04:26:59.289Z,100.00
2023-03-19T04:27:46.445Z,100.00
2023-03-19T04:28:33.929Z,100.00
2023-03-19T04:29:21.497Z,100.00
2023-03-19T04:30:10.106Z,100.00
2023-03-19T04:31:05.693Z,100.00
2023-03-19T04:31:52.725Z,100.00
2023-03-19T04:32:41.673Z,100.00
2023-03-19T04:33:30.075Z,100.00
2023-03-19T04:34:17.777Z,100.00
2023-03-19T04:35:05.137Z,100.00
2023-03-19T04:35:52.155Z,100.00
2023-03-19T04:36:39.137Z,100.00
2023-03-19T04:37:26.106Z,100.00
2023-03-19T04:38:12.994Z,100.00
2023-03-19T04:38:59.876Z,100.00
2023-03-19T04:39:47.256Z,100.00
2023-03-19T04:40:34.352Z,100.00
2023-03-19T04:41:21.523Z,100.00
2023-03-19T04:42:08.529Z,100.00
2023-03-19T04:42:55.448Z,100.00
2023-03-19T04:43:42.550Z,100.00
2023-03-19T04:44:29.626Z,100.00
2023-03-19T04:45:16.670Z,100.00
2023-03-19T04:46:03.754Z,100.00
2023-03-19T04:46:50.817Z,100.00
2023-03-19T04:47:37.713Z,100.00
2023-03-19T04:48:24.702Z,100.00
2023-03-19T04:49:12.841Z,100.00
2023-03-19T04:49:59.695Z,100.00
2023-03-19T04:50:47.936Z,100.00
2023-03-19T04:51:34.769Z,100.00
2023-03-19T04:52:21.629Z,100.00
2023-03-19T04:53:09.297Z,100.00
2023-03-19T04:53:56.209Z,100.00
2023-03-19T04:54:43.108Z,100.00
2023-03-19T04:55:29.960Z,100.00
2023-03-19T04:56:18.171Z,100.00
2023-03-19T04:57:05.284Z,100.00
2023-03-19T04:57:52.271Z,100.00
2023-03-19T04:58:39.194Z,100.00
2023-03-19T04:59:26.333Z,100.00
2023-03-19T05:00:14.806Z,100.00
2023-03-19T05:01:01.963Z,100.00
2023-03-19T05:01:49.057Z,100.00
2023-03-19T05:02:36.007Z,100.00
2023-03-19T05:03:22.931Z,100.00
2023-03-19T05:04:10.015Z,100.00
2023-03-19T05:04:56.963Z,100.00
2023-03-19T05:05:44.030Z,100.00
2023-03-19T05:06:31.509Z,100.00
2023-03-19T05:07:18.381Z,100.00
2023-03-19T05:08:05.397Z,100.00
2023-03-19T05:08:52.292Z,100.00
2023-03-19T05:09:39.404Z,99.97
2023-03-19T05:10:26.421Z,99.94
2023-03-19T05:11:13.310Z,99.65
2023-03-19T05:12:00.165Z,99.59
2023-03-19T05:12:47.066Z,99.27
2023-03-19T05:13:33.917Z,99.29
2023-03-19T05:14:20.804Z,99.22
2023-03-19T05:15:08.487Z,99.74
2023-03-19T05:15:56.952Z,99.70
2023-03-19T05:16:43.842Z,99.57
2023-03-19T05:17:30.935Z,99.96
2023-03-19T05:18:17.856Z,99.56
2023-03-19T05:19:04.771Z,99.59
2023-03-19T05:19:54.806Z,99.39
2023-03-19T05:20:42.843Z,99.15
2023-03-19T05:21:29.716Z,98.93
2023-03-19T05:22:17.395Z,98.58
2023-03-19T05:23:04.936Z,98.51
2023-03-19T05:23:52.959Z,98.39
2023-03-19T05:24:39.836Z,98.20
2023-03-19T05:25:27.256Z,97.87
2023-03-19T05:26:14.149Z,97.74
2023-03-19T05:27:01.174Z,97.93
2023-03-19T05:27:48.476Z,97.86
2023-03-19T05:28:35.625Z,97.73
2023-03-19T05:29:22.503Z,97.97
2023-03-19T05:30:10.014Z,98.05
2023-03-19T05:30:56.974Z,98.03
2023-03-19T05:31:44.017Z,98.21
2023-03-19T05:32:31.021Z,98.51
2023-03-19T05:33:17.930Z,98.79
2023-03-19T05:34:05.019Z,99.10
2023-03-19T05:34:52.169Z,99.29
2023-03-19T05:35:39.283Z,99.18
2023-03-19T05:36:26.196Z,100.00
2023-03-19T05:37:13.299Z,100.00
2023-03-19T05:38:00.161Z,100.00
2023-03-19T05:38:47.291Z,100.00
2023-03-19T05:39:34.268Z,100.00
2023-03-19T05:40:21.457Z,100.00
2023-03-19T05:41:08.585Z,100.00
2023-03-19T05:41:55.689Z,100.00
2023-03-19T05:42:42.975Z,100.00
2023-03-19T05:43:29.836Z,100.00
2023-03-19T05:44:16.996Z,100.00
2023-03-19T05:45:04.851Z,100.00
2023-03-19T05:45:52.849Z,100.00
2023-03-19T05:46:39.761Z,100.00
2023-03-19T05:47:27.243Z,100.00
2023-03-19T05:48:14.748Z,100.00
2023-03-19T05:49:01.616Z,100.00
2023-03-19T05:49:48.658Z,100.00
2023-03-19T05:50:35.777Z,100.00
2023-03-19T05:51:22.827Z,100.00
2023-03-19T05:52:09.875Z,100.00
2023-03-19T05:52:56.922Z,100.00
2023-03-19T05:53:43.803Z,100.00
2023-03-19T05:54:30.653Z,100.00
2023-03-19T05:55:17.723Z,100.00
2023-03-19T05:56:04.939Z,100.00
2023-03-19T05:56:51.885Z,100.00
2023-03-19T05:57:38.762Z,100.00
2023-03-19T05:58:26.147Z,100.00
2023-03-19T05:59:12.952Z,100.00
2023-03-19T05:59:59.861Z,100.00
2023-03-19T06:00:48.787Z,100.00
2023-03-19T06:01:35.939Z,100.00
2023-03-19T06:02:23.009Z,100.00
2023-03-19T06:03:10.122Z,100.00
2023-03-19T06:03:57.079Z,100.00
2023-03-19T06:04:43.963Z,100.00
2023-03-19T06:05:30.855Z,100.00
2023-03-19T06:06:18.263Z,100.00
2023-03-19T06:07:05.315Z,100.00
2023-03-19T06:07:52.203Z,100.00
2023-03-19T06:08:39.411Z,100.00
2023-03-19T06:09:26.380Z,100.00
2023-03-19T06:10:13.445Z,100.00
2023-03-19T06:11:00.979Z,100.00
2023-03-19T06:11:47.911Z,100.00
2023-03-19T06:12:34.932Z,100.00
2023-03-19T06:13:22.184Z,100.00
2023-03-19T06:14:09.415Z,100.00
2023-03-19T06:14:56.936Z,100.00
2023-03-19T06:15:43.859Z,100.00
2023-03-19T06:16:30.984Z,100.00
2023-03-19T06:17:18.467Z,100.00
2023-03-19T06:18:05.508Z,100.00
2023-03-19T06:18:52.397Z,99.84
2023-03-19T06:19:39.424Z,99.69
2023-03-19T06:20:26.373Z,99.39
2023-03-19T06:21:13.291Z,99.25
2023-03-19T06:22:00.192Z,99.08
2023-03-19T06:22:47.185Z,99.04
2023-03-19T06:23:34.101Z,99.11
2023-03-19T06:24:20.964Z,99.41
2023-03-19T06:25:08.573Z,99.30
2023-03-19T06:25:55.682Z,99.14
2023-03-19T06:26:42.688Z,99.41
2023-03-19T06:27:29.566Z,99.48
2023-03-19T06:28:17.278Z,99.26
2023-03-19T06:29:04.437Z,98.58
2023-03-19T06:29:51.687Z,98.25
2023-03-19T06:30:38.618Z,97.06
2023-03-19T06:31:26.007Z,96.19
2023-03-19T06:32:13.798Z,95.62
2023-03-19T06:33:00.993Z,95.38
2023-03-19T06:33:49.409Z,94.72
2023-03-19T06:34:36.546Z,94.70
2023-03-19T06:35:23.689Z,94.90
2023-03-19T06:36:10.864Z,94.79
2023-03-19T06:36:57.873Z,94.47
2023-03-19T06:37:44.750Z,93.62
2023-03-19T06:38:31.674Z,92.33
2023-03-19T06:39:18.575Z,91.36
2023-03-19T06:40:06.201Z,90.68
2023-03-19T06:40:53.209Z,90.63
2023-03-19T06:41:40.226Z,90.25
2023-03-19T06:42:27.281Z,88.51
2023-03-19T06:43:14.157Z,88.32
2023-03-19T06:44:01.113Z,88.33
2023-03-19T06:44:48.636Z,87.19
2023-03-19T06:45:35.914Z,87.89
2023-03-19T06:46:23.326Z,86.96
2023-03-19T06:47:10.781Z,86.29
2023-03-19T06:47:58.101Z,85.17
2023-03-19T06:48:44.999Z,85.47
2023-03-19T06:49:33.709Z,85.28
2023-03-19T06:50:20.868Z,83.38
2023-03-19T06:51:07.801Z,83.77
2023-03-19T06:51:54.749Z,83.80
2023-03-19T06:52:41.812Z,84.07
2023-03-19T06:53:28.827Z,82.96
2023-03-19T06:54:15.769Z,81.98
2023-03-19T06:55:02.638Z,81.86
2023-03-19T06:55:49.517Z,81.24
2023-03-19T06:56:36.540Z,81.07
2023-03-19T06:57:23.420Z,81.05
2023-03-19T06:58:10.288Z,79.63
2023-03-19T06:58:57.287Z,79.33
2023-03-19T06:59:44.240Z,80.03
2023-03-19T07:00:31.202Z,79.76
2023-03-19T07:01:18.930Z,79.31
2023-03-19T07:02:05.868Z,78.71
2023-03-19T07:02:52.678Z,78.99
2023-03-19T07:03:39.555Z,78.60
2023-03-19T07:04:27.088Z,78.86
2023-03-19T07:05:14.058Z,78.86
2023-03-19T07:06:01.077Z,78.27
2023-03-19T07:06:47.998Z,78.24
2023-03-19T07:07:34.885Z,78.44
2023-03-19T07:08:21.798Z,78.19
2023-03-19T07:09:08.716Z,78.38
2023-03-19T07:09:55.850Z,78.04
2023-03-19T07:10:42.717Z,78.12
2023-03-19T07:11:29.597Z,77.87
2023-03-19T07:12:16.717Z,77.54
2023-03-19T07:13:04.357Z,77.87
2023-03-19T07:13:51.305Z,77.26
2023-03-19T07:14:38.235Z,77.06
2023-03-19T07:15:25.138Z,77.16
2023-03-19T07:16:12.037Z,76.59
2023-03-19T07:16:59.004Z,76.24
2023-03-19T07:17:49.962Z,75.89
2023-03-19T07:18:36.922Z,76.31
2023-03-19T07:19:23.867Z,76.04
2023-03-19T07:20:11.670Z,75.84
2023-03-19T07:20:58.599Z,75.18
2023-03-19T07:21:45.651Z,74.38
2023-03-19T07:22:32.702Z,74.25
2023-03-19T07:23:19.750Z,74.80
2023-03-19T07:24:06.874Z,73.90
2023-03-19T07:24:53.833Z,74.04
2023-03-19T07:25:40.919Z,73.95
2023-03-19T07:26:27.935Z,74.36
2023-03-19T07:27:15.057Z,74.13
2023-03-19T07:28:01.954Z,74.22
2023-03-19T07:29:34.500Z,74.11
2023-03-19T07:30:21.517Z,71.82
2023-03-19T07:31:08.457Z,72.17
2023-03-19T07:31:55.481Z,72.17
2023-03-19T07:32:43.312Z,71.73
2023-03-19T07:33:30.228Z,71.46
2023-03-19T07:34:17.097Z,71.87
2023-03-19T07:35:04.228Z,72.09
2023-03-19T07:35:51.394Z,71.63
2023-03-19T07:36:38.276Z,71.46
2023-03-19T07:37:25.258Z,70.34
2023-03-19T07:38:12.218Z,69.92
2023-03-19T07:38:59.130Z,69.80
2023-03-19T07:39:46.290Z,69.95
2023-03-19T07:40:33.392Z,69.57
2023-03-19T07:41:20.468Z,69.71
2023-03-19T07:42:07.565Z,69.86
2023-03-19T07:42:54.516Z,70.13
2023-03-19T07:43:41.435Z,69.23
2023-03-19T07:44:28.303Z,68.77
2023-03-19T07:45:15.175Z,68.73
2023-03-19T07:46:02.178Z,69.47
2023-03-19T07:46:49.134Z,69.32
2023-03-19T07:47:36.482Z,68.66
2023-03-19T07:48:23.436Z,67.84
2023-03-19T07:49:10.579Z,67.68
2023-03-19T07:49:58.369Z,67.73
2023-03-19T07:50:45.680Z,68.11
2023-03-19T07:51:32.543Z,67.93
2023-03-19T07:52:19.428Z,67.59
2023-03-19T07:53:06.618Z,66.38
2023-03-19T07:53:53.546Z,65.89
2023-03-19T07:54:41.022Z,66.67
2023-03-19T07:55:27.905Z,66.58
2023-03-19T07:56:14.832Z,66.23
2023-03-19T07:57:01.840Z,65.56
2023-03-19T07:57:48.885Z,65.66
2023-03-19T07:58:35.779Z,65.99
2023-03-19T07:59:22.852Z,65.00
2023-03-19T08:00:11.154Z,64.71
2023-03-19T08:00:58.153Z,64.69
2023-03-19T08:01:45.015Z,65.15
2023-03-19T08:02:31.901Z,64.11
2023-03-19T08:03:18.935Z,64.73
2023-03-19T08:04:05.933Z,64.45
2023-03-19T08:04:52.956Z,64.44
2023-03-19T08:05:39.959Z,63.68
2023-03-19T08:06:26.933Z,63.14
2023-03-19T08:07:14.304Z,63.52
2023-03-19T08:08:01.453Z,64.26
2023-03-19T08:08:48.421Z,63.03
2023-03-19T08:09:35.323Z,61.41
2023-03-19T08:10:22.682Z,62.41
2023-03-19T08:11:10.604Z,62.21
2023-03-19T08:11:57.485Z,63.08
2023-03-19T08:12:44.437Z,63.30
2023-03-19T08:13:31.884Z,63.00
2023-03-19T08:14:22.654Z,61.79
2023-03-19T08:15:11.309Z,61.95
2023-03-19T08:15:58.262Z,61.85
2023-03-19T08:16:45.172Z,60.58
2023-03-19T08:17:34.463Z,61.12
2023-03-19T08:18:21.528Z,61.41
2023-03-19T08:19:08.543Z,60.82
2023-03-19T08:19:55.492Z,60.99
2023-03-19T08:20:42.395Z,61.31
2023-03-19T08:21:31.557Z,61.20
2023-03-19T08:22:18.497Z,61.28
2023-03-19T08:23:05.453Z,62.05
2023-03-19T08:23:53.249Z,61.51
2023-03-19T08:24:40.197Z,63.31
2023-03-19T08:25:27.812Z,60.52
2023-03-19T08:26:14.684Z,60.37
2023-03-19T08:27:01.710Z,59.87
2023-03-19T08:27:49.254Z,59.94
2023-03-19T08:28:37.606Z,59.74
2023-03-19T08:29:26.536Z,60.08
2023-03-19T08:30:13.962Z,59.02
2023-03-19T08:31:10.034Z,58.49
2023-03-19T08:31:58.804Z,58.52
2023-03-19T08:32:45.938Z,58.70
2023-03-19T08:33:32.880Z,58.05
2023-03-19T08:34:20.263Z,58.52
2023-03-19T08:35:07.566Z,58.21
2023-03-19T08:35:54.730Z,57.23
2023-03-19T08:36:44.467Z,57.20
2023-03-19T08:37:31.843Z,57.37
2023-03-19T08:38:19.390Z,58.46
2023-03-19T08:39:06.527Z,56.73
2023-03-19T08:39:53.461Z,56.20
2023-03-19T08:40:40.742Z,56.11
2023-03-19T08:41:27.951Z,56.24
2023-03-19T08:42:14.863Z,54.79
2023-03-19T08:43:02.016Z,55.33
2023-03-19T08:43:49.523Z,55.27
2023-03-19T08:44:36.374Z,55.11
2023-03-19T08:45:23.755Z,55.33
2023-03-19T08:46:11.349Z,54.69
2023-03-19T08:46:58.360Z,54.69
2023-03-19T08:47:45.414Z,54.92
2023-03-19T08:48:32.552Z,54.91
2023-03-19T08:49:19.597Z,54.14
2023-03-19T08:50:07.594Z,52.98
2023-03-19T08:50:59.613Z,52.48
2023-03-19T08:51:46.498Z,52.86
2023-03-19T08:52:33.818Z,53.13
2023-03-19T08:53:21.809Z,52.67
2023-03-19T08:54:09.704Z,51.80
2023-03-19T08:54:56.643Z,52.23
2023-03-19T08:55:44.244Z,53.13
2023-03-19T08:56:31.173Z,52.69
2023-03-19T08:57:18.133Z,53.17
2023-03-19T08:58:05.071Z,52.21
2023-03-19T08:58:51.975Z,51.75
2023-03-19T08:59:38.901Z,51.96
2023-03-19T09:00:26.428Z,50.50
2023-03-19T09:01:14.385Z,49.82
2023-03-19T09:02:01.811Z,50.31
2023-03-19T09:02:49.013Z,49.46
2023-03-19T09:03:36.678Z,49.52
2023-03-19T09:04:23.816Z,49.93
2023-03-19T09:05:10.724Z,50.18
2023-03-19T09:06:06.629Z,51.17
2023-03-19T09:06:53.587Z,50.48
2023-03-19T09:07:40.543Z,50.67
2023-03-19T09:08:28.796Z,49.92
2023-03-19T09:09:15.781Z,50.00
2023-03-19T09:10:02.783Z,50.55
2023-03-19T09:10:51.434Z,49.43
2023-03-19T09:11:38.579Z,50.34
2023-03-19T09:12:25.652Z,50.40
2023-03-19T09:13:12.570Z,49.30
2023-03-19T09:13:59.484Z,50.08
2023-03-19T09:14:46.480Z,50.23
2023-03-19T09:15:33.622Z,50.22
2023-03-19T09:16:20.889Z,49.54
2023-03-19T09:17:08.315Z,48.83
2023-03-19T09:17:55.602Z,49.10
2023-03-19T09:18:42.813Z,48.88
2023-03-19T09:19:29.726Z,48.25
2023-03-19T09:20:16.661Z,48.64
2023-03-19T09:21:04.033Z,49.16
2023-03-19T09:21:51.246Z,48.55
2023-03-19T09:22:38.134Z,48.72
2023-03-19T09:23:25.172Z,48.68
2023-03-19T09:24:12.153Z,48.22
2023-03-19T09:24:59.173Z,48.31
2023-03-19T09:25:46.564Z,48.52
2023-03-19T09:26:33.477Z,47.58
2023-03-19T09:27:21.761Z,47.40
2023-03-19T09:28:08.983Z,48.40
2023-03-19T09:28:56.438Z,47.64
2023-03-19T09:29:43.408Z,49.32
2023-03-19T09:30:30.372Z,46.63
2023-03-19T09:31:18.028Z,46.36
2023-03-19T09:32:08.195Z,46.78
2023-03-19T09:32:55.255Z,46.88
2023-03-19T09:33:45.118Z,47.14
2023-03-19T09:34:32.026Z,46.73
2023-03-19T09:35:18.997Z,46.58
2023-03-19T09:36:06.179Z,46.12
2023-03-19T09:36:53.124Z,46.41
2023-03-19T09:37:40.002Z,46.74
2023-03-19T09:38:26.923Z,46.83
2023-03-19T09:39:13.885Z,46.26
2023-03-19T09:40:01.409Z,46.25
2023-03-19T09:40:50.485Z,47.12
2023-03-19T09:42:14.094Z,46.03
2023-03-19T09:43:11.224Z,47.12
2023-03-19T09:43:59.734Z,46.17
2023-03-19T09:44:46.688Z,46.97
2023-03-19T09:45:33.936Z,46.24
2023-03-19T09:47:07.561Z,46.11
2023-03-19T09:47:58.913Z,46.02
2023-03-19T09:48:52.372Z,46.62
2023-03-19T09:49:45.304Z,45.61
2023-03-19T09:50:34.994Z,46.99
2023-03-19T09:51:28.503Z,45.84
2023-03-19T09:52:20.992Z,45.58
2023-03-19T09:53:34.487Z,45.51
2023-03-19T09:54:32.126Z,45.48
2023-03-19T09:55:27.294Z,45.12
2023-03-19T09:56:16.591Z,45.43
2023-03-19T09:57:03.617Z,45.47
2023-03-19T09:57:51.641Z,45.85
2023-03-19T09:58:38.694Z,45.40
2023-03-19T09:59:27.420Z,44.49
2023-03-19T10:00:17.576Z,44.62
2023-03-19T10:01:04.580Z,45.35
2023-03-19T10:02:31.901Z,44.79
2023-03-19T10:03:30.968Z,45.39
2023-03-19T10:04:33.384Z,45.21
2023-03-19T10:05:26.266Z,45.62
2023-03-19T10:06:22.493Z,44.31
2023-03-19T10:07:38.889Z,44.27
2023-03-19T10:08:35.224Z,44.29
2023-03-19T10:09:55.820Z,43.54
2023-03-19T10:10:58.683Z,43.52
2023-03-19T10:12:12.475Z,44.23
2023-03-19T10:13:39.845Z,43.79
2023-03-19T10:15:04.166Z,43.31
2023-03-19T10:15:51.374Z,43.18
2023-03-19T10:16:38.892Z,43.44